createdAt,value
2022-09-23T00:01:08.071Z,8.30
2022-09-23T00:03:36.059Z,7.95
2022-09-23T00:06:06.037Z,8.68
2022-09-23T00:08:32.778Z,7.90
2022-09-23T00:11:11.266Z,7.72
2022-09-23T00:13:39.433Z,8.52
2022-09-23T00:16:08.991Z,7.80
2022-09-23T00:18:37.781Z,7.85
2022-09-23T00:21:13.987Z,8.30
2022-09-23T00:23:42.938Z,10.23
2022-09-23T00:26:12.329Z,10.90
2022-09-23T00:28:39.022Z,10.20
2022-09-23T00:31:07.953Z,10.07
2022-09-23T00:33:34.754Z,9.00
2022-09-23T00:36:02.858Z,10.63
2022-09-23T00:38:29.778Z,9.98
2022-09-23T00:40:56.798Z,8.00
2022-09-23T00:43:39.741Z,9.00
2022-09-23T00:46:09.147Z,11.02
2022-09-23T00:48:38.118Z,9.45
2022-09-23T00:51:05.430Z,8.93
2022-09-23T00:53:32.182Z,10.20
2022-09-23T00:56:03.718Z,9.02
2022-09-23T00:58:33.101Z,10.05
2022-09-23T01:01:00.924Z,9.60
2022-09-23T01:03:28.172Z,9.13
2022-09-23T01:05:55.416Z,9.88
2022-09-23T01:08:23.211Z,8.05
2022-09-23T01:11:14.843Z,8.40
2022-09-23T01:14:02.546Z,9.02
2022-09-23T01:19:43.639Z,6.68
2022-09-23T01:22:19.926Z,5.57
2022-09-23T01:25:11.411Z,6.75
2022-09-23T01:27:37.988Z,7.63
2022-09-23T01:30:09.129Z,6.57
2022-09-23T01:32:44.632Z,7.03
2022-09-23T01:35:11.252Z,7.75
2022-09-23T01:38:04.620Z,7.07
2022-09-23T01:40:43.686Z,6.45
2022-09-23T01:43:13.541Z,6.10
2022-09-23T01:45:47.955Z,6.53
2022-09-23T01:48:26.801Z,6.22
2022-09-23T01:51:02.518Z,6.65
2022-09-23T01:53:39.400Z,6.07
2022-09-23T01:56:11.378Z,6.35
2022-09-23T01:59:28.670Z,6.55
2022-09-23T02:02:15.393Z,5.47
2022-09-23T02:04:45.719Z,6.18
2022-09-23T02:07:27.232Z,5.78
2022-09-23T02:12:34.102Z,6.35
2022-09-23T02:15:09.359Z,7.35
2022-09-23T02:17:48.858Z,6.72
2022-09-23T02:20:21.052Z,6.63
2022-09-23T02:22:59.998Z,6.85
2022-09-23T02:25:34.008Z,7.55
2022-09-23T02:28:12.514Z,6.55
2022-09-23T02:30:46.687Z,8.18
2022-09-23T02:33:23.938Z,7.80
2022-09-23T02:36:03.244Z,7.30
2022-09-23T02:38:40.210Z,6.75
2022-09-23T02:41:08.059Z,6.63
2022-09-23T02:44:07.121Z,4.55
2022-09-23T02:46:34.674Z,6.07
2022-09-23T02:49:06.102Z,6.85
2022-09-23T02:51:36.155Z,6.50
2022-09-23T02:54:04.500Z,5.53
2022-09-23T02:56:31.121Z,6.50
2022-09-23T02:58:58.104Z,4.82
2022-09-23T03:01:49.766Z,6.65
2022-09-23T03:04:27.420Z,7.80
2022-09-23T03:07:03.506Z,6.95
2022-09-23T03:09:38.569Z,6.28
2022-09-23T03:12:15.855Z,5.55
2022-09-23T03:14:58.499Z,6.15
2022-09-23T03:17:31.820Z,6.05
2022-09-23T03:20:03.572Z,4.28
2022-09-23T03:22:34.457Z,4.82
2022-09-23T03:25:09.106Z,5.10
2022-09-23T03:27:36.744Z,6.55
2022-09-23T03:30:04.523Z,7.25
2022-09-23T03:32:32.087Z,7.82
2022-09-23T03:35:01.094Z,7.45
2022-09-23T03:37:33.878Z,9.75
2022-09-23T03:40:19.526Z,7.85
2022-09-23T03:42:48.981Z,11.50
2022-09-23T03:45:19.123Z,11.45
2022-09-23T03:47:46.282Z,12.48
2022-09-23T03:50:13.734Z,13.18
2022-09-23T03:52:40.578Z,10.40
2022-09-23T03:55:07.867Z,15.10
2022-09-23T03:57:34.699Z,15.43
2022-09-23T04:00:01.649Z,17.33
2022-09-23T04:02:28.377Z,16.17
2022-09-23T04:04:56.129Z,15.95
2022-09-23T04:07:22.895Z,14.40
2022-09-23T04:09:49.671Z,14.68
2022-09-23T04:12:16.989Z,10.77
2022-09-23T04:14:44.175Z,14.48
2022-09-23T04:17:11.426Z,10.38
2022-09-23T04:19:38.175Z,12.82
2022-09-23T04:22:05.358Z,13.45
2022-09-23T04:24:31.986Z,17.33
2022-09-23T04:26:58.729Z,11.55
2022-09-23T04:29:25.970Z,12.60
2022-09-23T04:31:53.397Z,18.13
2022-09-23T04:34:20.712Z,12.13
2022-09-23T04:36:48.264Z,11.02
2022-09-23T04:39:16.080Z,12.00
2022-09-23T04:41:43.653Z,10.00
2022-09-23T04:44:12.260Z,13.10
2022-09-23T04:46:40.416Z,10.57
2022-09-23T04:49:07.641Z,14.40
2022-09-23T04:51:34.745Z,9.40
2022-09-23T04:54:01.616Z,14.93
2022-09-23T04:56:32.246Z,10.82
2022-09-23T04:58:58.967Z,10.55
2022-09-23T05:01:28.564Z,10.20
2022-09-23T05:04:02.496Z,7.70
2022-09-23T05:06:30.290Z,8.48
2022-09-23T05:08:58.247Z,9.10
2022-09-23T05:11:25.954Z,9.18
2022-09-23T05:13:54.012Z,6.90
2022-09-23T05:16:23.298Z,9.13
2022-09-23T05:18:50.897Z,7.38
2022-09-23T05:21:22.889Z,7.95
2022-09-23T05:23:55.267Z,5.78
2022-09-23T05:26:27.491Z,6.53
2022-09-23T05:28:54.358Z,8.80
2022-09-23T05:31:23.219Z,9.35
2022-09-23T05:33:55.959Z,10.23
2022-09-23T05:36:23.593Z,9.80
2022-09-23T05:38:51.326Z,12.55
2022-09-23T05:41:20.793Z,11.70
2022-09-23T05:43:47.539Z,12.25
2022-09-23T05:46:23.311Z,12.70
2022-09-23T05:48:50.621Z,11.10
2022-09-23T05:51:25.476Z,7.95
2022-09-23T05:53:57.765Z,8.18
2022-09-23T05:56:26.358Z,8.32
2022-09-23T05:58:54.327Z,7.72
2022-09-23T06:01:25.015Z,7.57
2022-09-23T06:03:52.985Z,7.55
2022-09-23T06:06:21.930Z,7.72
2022-09-23T06:08:48.722Z,6.70
2022-09-23T06:11:15.477Z,6.60
2022-09-23T06:13:42.230Z,7.20
2022-09-23T06:16:11.637Z,7.93
2022-09-23T06:18:42.560Z,6.18
2022-09-23T06:21:12.644Z,7.78
2022-09-23T06:23:41.456Z,7.88
2022-09-23T06:26:10.325Z,7.43
2022-09-23T06:28:38.557Z,7.68
2022-09-23T06:31:13.393Z,9.20
2022-09-23T06:36:07.583Z,8.52
2022-09-23T06:38:35.154Z,6.72
2022-09-23T06:41:04.780Z,6.00
2022-09-23T06:43:31.476Z,6.82
2022-09-23T06:46:00.164Z,6.55
2022-09-23T06:48:27.593Z,6.43
2022-09-23T06:50:54.761Z,7.45
2022-09-23T06:53:24.933Z,8.15
2022-09-23T06:56:11.218Z,8.23
2022-09-23T06:58:39.328Z,7.82
2022-09-23T07:01:08.138Z,7.63
2022-09-23T07:03:35.588Z,9.93
2022-09-23T07:06:02.685Z,7.00
2022-09-23T07:08:30.798Z,6.50
2022-09-23T07:10:59.399Z,3.45
2022-09-23T07:13:26.509Z,3.50
2022-09-23T07:15:58.464Z,4.07
2022-09-23T07:18:26.279Z,3.97
2022-09-23T07:20:53.569Z,2.55
2022-09-23T07:23:20.541Z,2.75
2022-09-23T07:25:50.403Z,3.55
2022-09-23T07:28:17.894Z,1.98
2022-09-23T07:30:56.855Z,2.13
2022-09-23T07:33:32.956Z,2.70
2022-09-23T07:36:07.139Z,2.10
2022-09-23T07:38:34.923Z,1.67
2022-09-23T07:41:10.938Z,2.75
2022-09-23T07:43:37.999Z,2.60
2022-09-23T07:46:11.142Z,2.00
2022-09-23T07:48:38.674Z,1.65
2022-09-23T07:51:19.095Z,2.80
2022-09-23T07:53:50.842Z,2.28
2022-09-23T07:56:19.435Z,2.47
2022-09-23T07:58:59.974Z,2.75
2022-09-23T08:01:31.796Z,1.83
2022-09-23T08:04:01.347Z,1.92
2022-09-23T08:06:28.175Z,2.30
2022-09-23T08:08:57.626Z,1.75
2022-09-23T08:11:25.017Z,2.10
2022-09-23T08:13:51.946Z,1.55
2022-09-23T08:16:18.837Z,2.33
2022-09-23T08:18:46.000Z,1.92
2022-09-23T08:21:13.167Z,2.70
2022-09-23T08:23:40.454Z,1.83
2022-09-23T08:26:12.176Z,1.60
2022-09-23T08:28:41.209Z,1.83
2022-09-23T08:31:08.489Z,1.38
2022-09-23T08:33:35.183Z,1.23
2022-09-23T08:36:02.823Z,1.40
2022-09-23T08:38:30.051Z,2.03
2022-09-23T08:41:08.034Z,2.72
2022-09-23T08:43:36.387Z,2.63
2022-09-23T08:46:05.033Z,2.13
2022-09-23T08:48:36.004Z,2.13
2022-09-23T08:51:06.134Z,2.50
2022-09-23T08:53:37.321Z,1.20
2022-09-23T08:56:13.820Z,3.13
2022-09-23T08:59:28.859Z,1.60
2022-09-23T09:02:01.024Z,1.75
2022-09-23T09:04:39.357Z,2.75
2022-09-23T09:07:35.078Z,1.48
2022-09-23T09:10:10.809Z,1.33
2022-09-23T09:12:47.050Z,2.22
2022-09-23T09:15:24.769Z,1.45
2022-09-23T09:18:07.689Z,2.08
2022-09-23T09:20:57.554Z,2.22
2022-09-23T09:23:31.074Z,2.28
2022-09-23T09:25:59.577Z,2.08
2022-09-23T09:28:27.834Z,2.97
2022-09-23T09:30:58.537Z,2.20
2022-09-23T09:33:32.354Z,2.42
2022-09-23T09:36:12.009Z,3.03
2022-09-23T09:38:38.653Z,1.77
2022-09-23T09:41:15.309Z,1.63
2022-09-23T09:43:44.658Z,1.52
2022-09-23T09:46:34.187Z,1.73
2022-09-23T09:49:12.101Z,2.28
2022-09-23T09:51:41.330Z,2.75
2022-09-23T09:54:37.469Z,1.75
2022-09-23T09:57:20.103Z,2.03
2022-09-23T09:59:46.776Z,2.15
2022-09-23T10:02:27.423Z,2.08
2022-09-23T10:05:03.820Z,1.80
2022-09-23T10:07:32.381Z,2.45
2022-09-23T10:10:28.922Z,1.95
2022-09-23T10:13:14.874Z,2.00
2022-09-23T10:15:44.907Z,2.72
2022-09-23T10:18:19.742Z,1.85
2022-09-23T10:20:46.865Z,2.28
2022-09-23T10:23:21.850Z,1.85
2022-09-23T10:26:00.240Z,2.10
2022-09-23T10:28:51.979Z,2.28
2022-09-23T10:31:28.887Z,2.17
2022-09-23T10:34:00.981Z,1.63
2022-09-23T10:36:30.389Z,1.73
2022-09-23T10:39:18.961Z,2.38
2022-09-23T10:42:28.952Z,2.35
2022-09-23T10:45:20.389Z,2.83
2022-09-23T10:47:52.603Z,2.33
2022-09-23T10:50:50.650Z,2.38
2022-09-23T10:53:32.358Z,1.85
2022-09-23T10:56:22.014Z,2.28
2022-09-23T10:59:02.541Z,1.95
2022-09-23T11:02:23.439Z,1.70
2022-09-23T11:05:11.770Z,1.63
2022-09-23T11:07:56.997Z,2.33
2022-09-23T11:10:44.842Z,2.78
2022-09-23T11:13:29.156Z,2.13
2022-09-23T11:16:15.364Z,2.42
2022-09-23T11:18:51.679Z,2.35
2022-09-23T11:21:37.237Z,2.78
2022-09-23T11:24:17.855Z,2.67
2022-09-23T11:27:00.366Z,2.65
2022-09-23T11:29:42.967Z,2.47
2022-09-23T11:32:15.429Z,2.38
2022-09-23T11:34:54.848Z,2.30
2022-09-23T11:37:25.803Z,2.28
2022-09-23T11:40:01.159Z,2.53
2022-09-23T11:42:31.845Z,2.35
2022-09-23T11:45:02.656Z,2.25
2022-09-23T11:47:39.482Z,1.98
2022-09-23T11:50:29.694Z,2.70
2022-09-23T11:53:18.034Z,3.13
2022-09-23T11:55:57.212Z,1.40
2022-09-23T11:58:50.037Z,3.15
2022-09-23T12:01:37.069Z,2.50
2022-09-23T12:04:21.423Z,2.45
2022-09-23T12:06:52.849Z,2.33
2022-09-23T12:09:40.937Z,1.75
2022-09-23T12:12:31.848Z,2.83
2022-09-23T12:15:20.334Z,2.83
2022-09-23T12:18:23.034Z,3.53
2022-09-23T12:20:55.929Z,3.20
2022-09-23T12:23:41.295Z,5.55
2022-09-23T12:26:20.073Z,4.07
2022-09-23T12:28:52.937Z,4.18
2022-09-23T12:31:21.646Z,3.85
2022-09-23T12:33:50.198Z,3.28
2022-09-23T12:36:17.743Z,3.47
2022-09-23T12:38:53.430Z,3.60
2022-09-23T12:41:23.529Z,3.65
2022-09-23T12:43:55.309Z,3.90
2022-09-23T12:46:25.719Z,4.00
2022-09-23T12:49:03.185Z,3.38
2022-09-23T12:51:34.785Z,3.28
2022-09-23T12:54:04.357Z,3.80
2022-09-23T12:56:36.751Z,4.28
2022-09-23T12:59:09.510Z,3.75
2022-09-23T13:01:37.447Z,3.08
2022-09-23T13:04:23.949Z,2.63
2022-09-23T13:06:56.729Z,3.22
2022-09-23T13:09:28.656Z,2.60
2022-09-23T13:12:00.033Z,3.65
2022-09-23T13:14:28.731Z,2.13
2022-09-23T13:16:58.431Z,2.88
2022-09-23T13:19:28.045Z,1.33
2022-09-23T13:21:54.613Z,3.78
2022-09-23T13:24:30.090Z,2.85
2022-09-23T13:27:05.782Z,3.00
2022-09-23T13:29:39.181Z,2.30
2022-09-23T13:32:12.498Z,2.80
2022-09-23T13:34:40.030Z,2.83
2022-09-23T13:37:39.265Z,3.03
2022-09-23T13:40:16.047Z,2.45
2022-09-23T13:42:45.104Z,2.78
2022-09-23T13:47:44.476Z,2.03
2022-09-23T13:50:34.726Z,2.95
2022-09-23T13:53:05.850Z,2.97
2022-09-23T13:55:37.403Z,2.42
2022-09-23T13:58:25.960Z,3.13
2022-09-23T14:00:53.239Z,2.50
2022-09-23T14:03:27.053Z,2.75
2022-09-23T14:05:55.493Z,2.75
2022-09-23T14:08:22.407Z,2.75
2022-09-23T14:10:49.755Z,11.07
2022-09-23T14:13:25.503Z,5.07
2022-09-23T14:15:55.201Z,2.25
2022-09-23T14:18:30.539Z,2.38
2022-09-23T14:20:57.321Z,2.25
2022-09-23T14:23:24.009Z,4.22
2022-09-23T14:25:51.482Z,2.83
2022-09-23T14:28:23.124Z,2.60
2022-09-23T14:30:56.634Z,2.30
2022-09-23T14:33:27.008Z,1.83
2022-09-23T14:35:57.542Z,3.88
2022-09-23T14:38:46.321Z,1.90
2022-09-23T14:41:39.973Z,1.70
2022-09-23T14:46:37.862Z,1.85
2022-09-23T14:49:07.745Z,1.80
2022-09-23T14:51:49.940Z,2.05
2022-09-23T14:54:35.464Z,2.30
2022-09-23T14:57:05.987Z,3.58
2022-09-23T14:59:36.978Z,2.33
2022-09-23T15:02:33.867Z,2.38
2022-09-23T15:05:21.535Z,2.05
2022-09-23T15:07:52.616Z,2.50
2022-09-23T15:10:23.725Z,1.40
2022-09-23T15:12:52.177Z,2.08
2022-09-23T15:15:19.494Z,3.88
2022-09-23T15:17:47.034Z,2.72
2022-09-23T15:20:16.966Z,3.78
2022-09-23T15:22:44.947Z,3.55
2022-09-23T15:25:22.493Z,10.60
2022-09-23T15:28:03.438Z,4.32
2022-09-23T15:30:31.921Z,2.63
2022-09-23T15:32:58.762Z,3.42
2022-09-23T15:35:27.807Z,3.33
2022-09-23T15:40:33.488Z,4.10
2022-09-23T15:43:02.665Z,5.88
2022-09-23T15:45:33.311Z,5.10
2022-09-23T15:48:03.420Z,3.90
2022-09-23T15:50:31.291Z,4.43
2022-09-23T15:52:58.547Z,7.68
2022-09-23T15:55:25.824Z,6.47
2022-09-23T15:57:52.761Z,5.78
2022-09-23T16:00:19.647Z,7.57
2022-09-23T16:02:48.428Z,6.80
2022-09-23T16:05:22.202Z,7.40
2022-09-23T16:07:52.341Z,6.70
2022-09-23T16:10:20.652Z,8.25
2022-09-23T16:12:47.650Z,7.20
2022-09-23T16:15:17.087Z,7.13
2022-09-23T16:17:45.348Z,8.32
2022-09-23T16:20:15.428Z,9.88
2022-09-23T16:22:42.107Z,12.23
2022-09-23T16:25:11.894Z,12.77
2022-09-23T16:27:40.193Z,8.07
2022-09-23T16:30:07.761Z,8.05
2022-09-23T16:32:34.496Z,9.57
2022-09-23T16:35:01.116Z,4.47
2022-09-23T16:37:27.785Z,26.13
2022-09-23T16:39:55.020Z,9.18
2022-09-23T16:42:22.379Z,16.40
2022-09-23T16:44:49.020Z,36.15
2022-09-23T16:47:16.165Z,11.63
2022-09-23T16:49:42.830Z,20.55
2022-09-23T16:52:11.595Z,22.38
2022-09-23T16:54:38.362Z,18.70
2022-09-23T16:57:05.394Z,9.63
2022-09-23T16:59:51.986Z,9.65
2022-09-23T17:02:37.191Z,9.43
2022-09-23T17:05:04.170Z,10.20
2022-09-23T17:07:32.048Z,14.55
2022-09-23T17:09:58.692Z,12.48
2022-09-23T17:12:35.180Z,12.38
2022-09-23T17:15:05.432Z,14.18
2022-09-23T17:17:37.105Z,16.63
2022-09-23T17:20:05.528Z,14.52
2022-09-23T17:22:35.336Z,11.15
2022-09-23T17:25:03.759Z,14.05
2022-09-23T17:27:31.896Z,13.57
2022-09-23T17:29:59.054Z,15.00
2022-09-23T17:32:25.979Z,12.18
2022-09-23T17:34:52.641Z,9.82
2022-09-23T17:37:20.325Z,8.82
2022-09-23T17:39:46.962Z,11.43
2022-09-23T17:42:15.295Z,8.88
2022-09-23T17:44:46.046Z,9.30
2022-09-23T17:47:13.029Z,9.77
2022-09-23T17:49:39.990Z,8.48
2022-09-23T17:52:06.825Z,10.25
2022-09-23T17:54:33.571Z,10.70
2022-09-23T17:57:00.345Z,9.98
2022-09-23T17:59:27.156Z,15.15
2022-09-23T18:01:54.263Z,10.32
2022-09-23T18:04:21.330Z,11.32
2022-09-23T18:06:48.032Z,7.75
2022-09-23T18:09:14.765Z,7.57
2022-09-23T18:11:44.542Z,10.25
2022-09-23T18:14:19.641Z,11.38
2022-09-23T18:16:48.770Z,9.85
2022-09-23T18:21:46.223Z,11.05
2022-09-23T18:24:32.176Z,9.60
2022-09-23T18:27:00.227Z,9.80
2022-09-23T18:29:27.129Z,10.45
2022-09-23T18:31:54.056Z,9.90
2022-09-23T18:34:20.811Z,9.10
2022-09-23T18:36:47.509Z,8.95
2022-09-23T18:39:14.188Z,9.75
2022-09-23T18:41:41.296Z,8.80
2022-09-23T18:44:08.396Z,10.88
2022-09-23T18:46:35.593Z,9.75
2022-09-23T18:49:21.115Z,10.32
2022-09-23T18:51:51.055Z,9.57
2022-09-23T18:54:19.160Z,8.07
2022-09-23T18:56:46.512Z,9.75
2022-09-23T18:59:16.624Z,10.82
2022-09-23T19:01:44.232Z,12.02
2022-09-23T19:04:11.208Z,9.90
2022-09-23T19:06:37.951Z,8.93
2022-09-23T19:09:06.333Z,9.32
2022-09-23T19:11:36.212Z,10.60
2022-09-23T19:14:06.304Z,19.27
2022-09-23T19:16:34.983Z,27.25
2022-09-23T19:19:02.795Z,33.75
2022-09-23T19:21:30.163Z,32.70
2022-09-23T19:24:03.054Z,34.05
2022-09-23T19:26:32.860Z,34.10
2022-09-23T19:29:00.776Z,30.52
2022-09-23T19:31:33.528Z,24.23
2022-09-23T19:34:01.084Z,21.98
2022-09-23T19:36:32.635Z,21.05
2022-09-23T19:39:06.930Z,20.60
2022-09-23T19:41:35.434Z,16.15
2022-09-23T19:44:03.447Z,14.60
2022-09-23T19:46:31.802Z,12.07
2022-09-23T19:48:59.242Z,13.80
2022-09-23T19:51:28.334Z,16.88
2022-09-23T19:53:54.973Z,17.90
2022-09-23T19:56:21.829Z,15.57
2022-09-23T19:58:54.354Z,11.65
2022-09-23T20:01:22.343Z,15.18
2022-09-23T20:03:49.506Z,13.90
2022-09-23T20:06:16.967Z,13.90
2022-09-23T20:08:44.619Z,13.60
2022-09-23T20:11:13.917Z,14.43
2022-09-23T20:13:42.629Z,15.18
2022-09-23T20:16:12.192Z,13.07
2022-09-23T20:18:39.015Z,15.50
2022-09-23T20:21:12.211Z,15.65
2022-09-23T20:23:39.093Z,15.18
2022-09-23T20:26:25.014Z,17.27
2022-09-23T20:28:51.882Z,14.70
2022-09-23T20:31:20.928Z,17.23
2022-09-23T20:34:05.581Z,15.48
2022-09-23T20:36:33.234Z,18.10
2022-09-23T20:39:01.852Z,13.73
2022-09-23T20:41:29.961Z,17.52
2022-09-23T20:44:00.752Z,18.05
2022-09-23T20:46:28.650Z,16.00
2022-09-23T20:48:56.783Z,16.23
2022-09-23T20:51:24.825Z,14.25
2022-09-23T20:53:52.959Z,16.15
2022-09-23T20:56:21.126Z,17.23
2022-09-23T20:58:48.714Z,15.95
2022-09-23T21:01:16.014Z,15.15
2022-09-23T21:03:45.533Z,14.60
2022-09-23T21:06:14.271Z,13.35
2022-09-23T21:08:42.089Z,14.38
2022-09-23T21:11:11.636Z,13.52
2022-09-23T21:13:38.557Z,13.50
2022-09-23T21:16:10.835Z,14.13
2022-09-23T21:18:38.384Z,14.23
2022-09-23T21:21:06.266Z,13.68
2022-09-23T21:23:34.798Z,13.70
2022-09-23T21:26:03.035Z,12.98
2022-09-23T21:28:33.226Z,12.73
2022-09-23T21:31:05.815Z,13.43
2022-09-23T21:33:33.097Z,12.77
2022-09-23T21:36:06.328Z,13.02
2022-09-23T21:38:37.065Z,12.38
2022-09-23T21:41:09.075Z,10.98
2022-09-23T21:43:38.513Z,11.27
2022-09-23T21:46:08.558Z,13.05
2022-09-23T21:48:37.182Z,11.68
2022-09-23T21:51:05.956Z,11.98
2022-09-23T21:53:33.708Z,12.32
2022-09-23T21:56:03.682Z,12.38
2022-09-23T21:58:34.532Z,12.60
2022-09-23T22:01:02.007Z,12.57
2022-09-23T22:03:28.765Z,10.70
2022-09-23T22:06:06.996Z,12.77
2022-09-23T22:08:38.852Z,12.90
2022-09-23T22:11:33.672Z,14.48
2022-09-23T22:14:02.618Z,16.15
2022-09-23T22:16:30.216Z,17.15
2022-09-23T22:18:58.425Z,19.30
2022-09-23T22:21:26.738Z,22.25
2022-09-23T22:23:54.552Z,23.17
2022-09-23T22:26:21.483Z,22.20
2022-09-23T22:29:06.903Z,22.90
2022-09-23T22:31:52.058Z,23.77
2022-09-23T22:34:47.580Z,23.02
2022-09-23T22:37:07.069Z,22.40
2022-09-23T22:39:33.710Z,22.00
2022-09-23T22:42:00.348Z,22.67
2022-09-23T22:44:27.151Z,20.80
2022-09-23T22:46:53.953Z,19.20
2022-09-23T22:49:20.737Z,20.73
2022-09-23T22:51:47.415Z,20.58
2022-09-23T22:54:14.360Z,18.80
2022-09-23T22:56:41.065Z,21.08
2022-09-23T22:59:09.013Z,18.77
2022-09-23T23:01:36.317Z,16.08
2022-09-23T23:04:03.405Z,13.40
2022-09-23T23:06:36.425Z,17.10
2022-09-23T23:09:11.719Z,15.65
2022-09-23T23:14:10.171Z,15.68
2022-09-23T23:16:37.508Z,17.42
2022-09-23T23:19:06.753Z,18.40
2022-09-23T23:24:00.735Z,17.38
2022-09-23T23:26:29.288Z,14.00
2022-09-23T23:28:56.944Z,17.45
2022-09-23T23:31:25.814Z,16.25
2022-09-23T23:33:52.797Z,16.95
2022-09-23T23:36:21.696Z,16.08
2022-09-23T23:38:49.686Z,17.52
2022-09-23T23:41:18.379Z,17.60
2022-09-23T23:43:46.877Z,18.20
2022-09-23T23:46:14.733Z,19.23
2022-09-23T23:48:43.075Z,21.35
2022-09-23T23:51:11.458Z,22.05
2022-09-23T23:53:39.628Z,24.38
2022-09-23T23:56:08.823Z,24.48
2022-09-23T23:58:35.590Z,23.65
